sensor_id;sensor_type;location;lat;lon;timestamp;P1;durP1;ratioP1;P2;durP2;ratioP2
52450;SDS011;38366;53.176;6.540;2022-12-11T00:01:49;48.70;;;15.23;;
52450;SDS011;38366;53.176;6.540;2022-12-11T00:04:15;37.47;;;11.37;;
52450;SDS011;38366;53.176;6.540;2022-12-11T00:06:41;38.47;;;11.60;;
52450;SDS011;38366;53.176;6.540;2022-12-11T00:09:06;44.03;;;13.00;;
52450;SDS011;38366;53.176;6.540;2022-12-11T00:11:32;39.97;;;12.05;;
52450;SDS011;38366;53.176;6.540;2022-12-11T00:13:58;43.85;;;13.00;;
52450;SDS011;38366;53.176;6.540;2022-12-11T00:16:23;45.65;;;12.73;;
52450;SDS011;38366;53.176;6.540;2022-12-11T00:18:49;36.85;;;11.43;;
52450;SDS011;38366;53.176;6.540;2022-12-11T00:21:15;40.15;;;12.00;;
52450;SDS011;38366;53.176;6.540;2022-12-11T00:23:41;27.23;;;9.53;;
52450;SDS011;38366;53.176;6.540;2022-12-11T00:26:07;33.10;;;11.13;;
52450;SDS011;38366;53.176;6.540;2022-12-11T00:28:36;34.72;;;10.88;;
52450;SDS011;38366;53.176;6.540;2022-12-11T00:31:02;42.72;;;12.35;;
52450;SDS011;38366;53.176;6.540;2022-12-11T00:33:32;45.45;;;12.32;;
52450;SDS011;38366;53.176;6.540;2022-12-11T00:35:58;33.28;;;10.07;;
52450;SDS011;38366;53.176;6.540;2022-12-11T00:38:24;39.03;;;11.50;;
52450;SDS011;38366;53.176;6.540;2022-12-11T00:40:49;41.80;;;11.55;;
52450;SDS011;38366;53.176;6.540;2022-12-11T00:43:15;44.90;;;12.02;;
52450;SDS011;38366;53.176;6.540;2022-12-11T00:45:42;34.83;;;11.82;;
52450;SDS011;38366;53.176;6.540;2022-12-11T00:48:09;32.65;;;11.13;;
52450;SDS011;38366;53.176;6.540;2022-12-11T00:50:36;38.92;;;11.63;;
52450;SDS011;38366;53.176;6.540;2022-12-11T00:53:03;44.72;;;11.80;;
52450;SDS011;38366;53.176;6.540;2022-12-11T00:55:29;35.92;;;11.38;;
52450;SDS011;38366;53.176;6.540;2022-12-11T00:57:56;42.25;;;13.20;;
52450;SDS011;38366;53.176;6.540;2022-12-11T01:00:24;41.92;;;11.93;;
52450;SDS011;38366;53.176;6.540;2022-12-11T01:02:50;41.30;;;11.48;;
52450;SDS011;38366;53.176;6.540;2022-12-11T01:05:16;45.10;;;11.47;;
52450;SDS011;38366;53.176;6.540;2022-12-11T01:07:42;36.55;;;12.18;;
52450;SDS011;38366;53.176;6.540;2022-12-11T01:10:09;36.40;;;11.18;;
52450;SDS011;38366;53.176;6.540;2022-12-11T01:12:55;43.45;;;12.55;;
52450;SDS011;38366;53.176;6.540;2022-12-11T01:15:24;39.13;;;12.07;;
52450;SDS011;38366;53.176;6.540;2022-12-11T01:17:52;39.78;;;11.32;;
52450;SDS011;38366;53.176;6.540;2022-12-11T01:20:19;45.72;;;12.80;;
52450;SDS011;38366;53.176;6.540;2022-12-11T01:22:46;43.65;;;12.93;;
52450;SDS011;38366;53.176;6.540;2022-12-11T01:25:15;45.22;;;13.13;;
52450;SDS011;38366;53.176;6.540;2022-12-11T01:27:40;43.25;;;12.18;;
52450;SDS011;38366;53.176;6.540;2022-12-11T01:30:06;37.63;;;12.60;;
52450;SDS011;38366;53.176;6.540;2022-12-11T01:32:33;51.85;;;13.20;;
52450;SDS011;38366;53.176;6.540;2022-12-11T01:34:59;56.67;;;14.27;;
52450;SDS011;38366;53.176;6.540;2022-12-11T01:37:28;51.30;;;12.60;;
52450;SDS011;38366;53.176;6.540;2022-12-11T01:39:54;42.45;;;12.10;;
52450;SDS011;38366;53.176;6.540;2022-12-11T01:42:20;41.93;;;13.37;;
52450;SDS011;38366;53.176;6.540;2022-12-11T01:47:11;38.70;;;12.13;;
52450;SDS011;38366;53.176;6.540;2022-12-11T01:49:38;52.65;;;14.27;;
52450;SDS011;38366;53.176;6.540;2022-12-11T01:52:06;50.53;;;13.05;;
52450;SDS011;38366;53.176;6.540;2022-12-11T01:54:36;51.72;;;13.63;;
52450;SDS011;38366;53.176;6.540;2022-12-11T01:57:03;56.28;;;15.20;;
52450;SDS011;38366;53.176;6.540;2022-12-11T01:59:32;50.90;;;13.73;;
52450;SDS011;38366;53.176;6.540;2022-12-11T02:02:02;50.28;;;14.38;;
52450;SDS011;38366;53.176;6.540;2022-12-11T02:04:34;51.38;;;13.18;;
52450;SDS011;38366;53.176;6.540;2022-12-11T02:07:03;52.65;;;14.75;;
52450;SDS011;38366;53.176;6.540;2022-12-11T02:09:31;52.55;;;14.32;;
52450;SDS011;38366;53.176;6.540;2022-12-11T02:17:27;61.67;;;14.93;;
52450;SDS011;38366;53.176;6.540;2022-12-11T02:22:58;52.95;;;13.68;;
52450;SDS011;38366;53.176;6.540;2022-12-11T02:25:35;58.63;;;15.98;;
52450;SDS011;38366;53.176;6.540;2022-12-11T02:30:41;57.92;;;14.73;;
52450;SDS011;38366;53.176;6.540;2022-12-11T02:33:10;49.85;;;14.43;;
52450;SDS011;38366;53.176;6.540;2022-12-11T02:35:40;39.90;;;11.50;;
52450;SDS011;38366;53.176;6.540;2022-12-11T02:38:12;63.38;;;15.45;;
52450;SDS011;38366;53.176;6.540;2022-12-11T02:40:42;51.00;;;14.20;;
52450;SDS011;38366;53.176;6.540;2022-12-11T02:43:09;57.92;;;14.80;;
52450;SDS011;38366;53.176;6.540;2022-12-11T02:45:38;54.67;;;14.00;;
52450;SDS011;38366;53.176;6.540;2022-12-11T02:48:05;50.10;;;13.55;;
52450;SDS011;38366;53.176;6.540;2022-12-11T02:50:35;65.50;;;14.98;;
52450;SDS011;38366;53.176;6.540;2022-12-11T02:53:06;44.08;;;13.18;;
52450;SDS011;38366;53.176;6.540;2022-12-11T02:55:34;58.00;;;14.75;;
52450;SDS011;38366;53.176;6.540;2022-12-11T02:58:03;55.85;;;14.63;;
52450;SDS011;38366;53.176;6.540;2022-12-11T03:00:33;48.30;;;13.35;;
52450;SDS011;38366;53.176;6.540;2022-12-11T03:02:58;57.85;;;14.77;;
52450;SDS011;38366;53.176;6.540;2022-12-11T03:05:24;47.08;;;14.23;;
52450;SDS011;38366;53.176;6.540;2022-12-11T03:07:51;51.70;;;14.05;;
52450;SDS011;38366;53.176;6.540;2022-12-11T03:10:17;51.25;;;13.65;;
52450;SDS011;38366;53.176;6.540;2022-12-11T03:12:45;64.47;;;16.73;;
52450;SDS011;38366;53.176;6.540;2022-12-11T03:15:13;37.80;;;10.93;;
52450;SDS011;38366;53.176;6.540;2022-12-11T03:17:59;49.92;;;13.77;;
52450;SDS011;38366;53.176;6.540;2022-12-11T03:20:38;49.33;;;12.82;;
52450;SDS011;38366;53.176;6.540;2022-12-11T03:23:18;44.58;;;11.82;;
52450;SDS011;38366;53.176;6.540;2022-12-11T03:26:12;59.55;;;13.48;;
52450;SDS011;38366;53.176;6.540;2022-12-11T03:28:45;54.78;;;12.77;;
52450;SDS011;38366;53.176;6.540;2022-12-11T03:33:59;50.88;;;13.48;;
52450;SDS011;38366;53.176;6.540;2022-12-11T03:36:32;53.72;;;13.95;;
52450;SDS011;38366;53.176;6.540;2022-12-11T03:39:02;54.22;;;13.95;;
52450;SDS011;38366;53.176;6.540;2022-12-11T03:41:31;53.92;;;13.50;;
52450;SDS011;38366;53.176;6.540;2022-12-11T03:44:00;57.63;;;15.13;;
52450;SDS011;38366;53.176;6.540;2022-12-11T03:46:27;51.97;;;13.63;;
52450;SDS011;38366;53.176;6.540;2022-12-11T03:48:57;47.35;;;13.02;;
52450;SDS011;38366;53.176;6.540;2022-12-11T03:51:30;61.78;;;14.50;;
52450;SDS011;38366;53.176;6.540;2022-12-11T03:53:58;56.13;;;14.07;;
52450;SDS011;38366;53.176;6.540;2022-12-11T03:56:24;54.88;;;14.02;;
52450;SDS011;38366;53.176;6.540;2022-12-11T03:58:52;57.97;;;13.10;;
52450;SDS011;38366;53.176;6.540;2022-12-11T04:01:18;53.33;;;13.38;;
52450;SDS011;38366;53.176;6.540;2022-12-11T04:03:44;46.95;;;12.63;;
52450;SDS011;38366;53.176;6.540;2022-12-11T04:06:09;52.75;;;13.55;;
52450;SDS011;38366;53.176;6.540;2022-12-11T04:08:35;52.72;;;13.98;;
52450;SDS011;38366;53.176;6.540;2022-12-11T04:11:01;41.07;;;12.47;;
52450;SDS011;38366;53.176;6.540;2022-12-11T04:13:47;49.70;;;12.45;;
52450;SDS011;38366;53.176;6.540;2022-12-11T04:16:32;45.22;;;11.48;;
52450;SDS011;38366;53.176;6.540;2022-12-11T04:18:58;44.83;;;11.88;;
52450;SDS011;38366;53.176;6.540;2022-12-11T04:21:42;41.13;;;11.88;;
52450;SDS011;38366;53.176;6.540;2022-12-11T04:24:26;43.30;;;11.90;;
52450;SDS011;38366;53.176;6.540;2022-12-11T04:26:52;43.00;;;11.43;;
52450;SDS011;38366;53.176;6.540;2022-12-11T04:29:17;42.43;;;11.47;;
52450;SDS011;38366;53.176;6.540;2022-12-11T04:31:43;46.60;;;12.25;;
52450;SDS011;38366;53.176;6.540;2022-12-11T04:34:09;44.42;;;12.68;;
52450;SDS011;38366;53.176;6.540;2022-12-11T04:36:35;49.85;;;12.82;;
52450;SDS011;38366;53.176;6.540;2022-12-11T04:39:02;36.63;;;11.93;;
52450;SDS011;38366;53.176;6.540;2022-12-11T04:41:29;44.05;;;12.13;;
52450;SDS011;38366;53.176;6.540;2022-12-11T04:43:55;41.47;;;11.95;;
52450;SDS011;38366;53.176;6.540;2022-12-11T04:46:21;46.63;;;12.45;;
52450;SDS011;38366;53.176;6.540;2022-12-11T04:48:48;42.72;;;12.35;;
52450;SDS011;38366;53.176;6.540;2022-12-11T04:51:15;43.38;;;11.68;;
52450;SDS011;38366;53.176;6.540;2022-12-11T04:56:07;43.63;;;12.30;;
52450;SDS011;38366;53.176;6.540;2022-12-11T04:58:35;38.90;;;11.07;;
52450;SDS011;38366;53.176;6.540;2022-12-11T05:01:07;32.33;;;10.50;;
52450;SDS011;38366;53.176;6.540;2022-12-11T05:03:33;42.38;;;11.63;;
52450;SDS011;38366;53.176;6.540;2022-12-11T05:05:59;37.35;;;11.23;;
52450;SDS011;38366;53.176;6.540;2022-12-11T05:08:24;44.63;;;11.55;;
52450;SDS011;38366;53.176;6.540;2022-12-11T05:10:54;49.60;;;13.50;;
52450;SDS011;38366;53.176;6.540;2022-12-11T05:13:21;48.25;;;12.48;;
52450;SDS011;38366;53.176;6.540;2022-12-11T05:15:47;42.80;;;13.05;;
52450;SDS011;38366;53.176;6.540;2022-12-11T05:18:13;50.92;;;12.73;;
52450;SDS011;38366;53.176;6.540;2022-12-11T05:20:38;48.23;;;13.33;;
52450;SDS011;38366;53.176;6.540;2022-12-11T05:23:04;38.97;;;11.95;;
52450;SDS011;38366;53.176;6.540;2022-12-11T05:25:30;37.70;;;11.43;;
52450;SDS011;38366;53.176;6.540;2022-12-11T05:27:55;48.42;;;12.98;;
52450;SDS011;38366;53.176;6.540;2022-12-11T05:30:21;46.65;;;11.13;;
52450;SDS011;38366;53.176;6.540;2022-12-11T05:32:47;42.28;;;12.80;;
52450;SDS011;38366;53.176;6.540;2022-12-11T05:35:12;31.90;;;8.93;;
52450;SDS011;38366;53.176;6.540;2022-12-11T05:37:38;40.08;;;12.25;;
52450;SDS011;38366;53.176;6.540;2022-12-11T05:40:06;42.67;;;11.82;;
52450;SDS011;38366;53.176;6.540;2022-12-11T05:42:32;38.97;;;12.90;;
52450;SDS011;38366;53.176;6.540;2022-12-11T05:44:59;44.15;;;11.77;;
52450;SDS011;38366;53.176;6.540;2022-12-11T05:47:24;31.67;;;10.50;;
52450;SDS011;38366;53.176;6.540;2022-12-11T05:49:50;40.50;;;11.97;;
52450;SDS011;38366;53.176;6.540;2022-12-11T05:52:16;36.65;;;11.55;;
52450;SDS011;38366;53.176;6.540;2022-12-11T05:54:42;38.70;;;11.48;;
52450;SDS011;38366;53.176;6.540;2022-12-11T05:57:07;40.33;;;13.27;;
52450;SDS011;38366;53.176;6.540;2022-12-11T05:59:33;45.78;;;12.02;;
52450;SDS011;38366;53.176;6.540;2022-12-11T06:01:59;43.20;;;12.40;;
52450;SDS011;38366;53.176;6.540;2022-12-11T06:04:25;45.17;;;12.98;;
52450;SDS011;38366;53.176;6.540;2022-12-11T06:06:53;48.55;;;13.57;;
52450;SDS011;38366;53.176;6.540;2022-12-11T06:09:19;47.38;;;12.23;;
52450;SDS011;38366;53.176;6.540;2022-12-11T06:11:44;35.00;;;11.70;;
52450;SDS011;38366;53.176;6.540;2022-12-11T06:14:10;39.63;;;11.33;;
52450;SDS011;38366;53.176;6.540;2022-12-11T06:16:37;39.00;;;11.98;;
52450;SDS011;38366;53.176;6.540;2022-12-11T06:19:03;40.45;;;12.93;;
52450;SDS011;38366;53.176;6.540;2022-12-11T06:21:29;36.88;;;10.88;;
52450;SDS011;38366;53.176;6.540;2022-12-11T06:23:57;44.13;;;12.20;;
52450;SDS011;38366;53.176;6.540;2022-12-11T06:26:24;42.03;;;12.15;;
52450;SDS011;38366;53.176;6.540;2022-12-11T06:28:50;39.45;;;11.25;;
52450;SDS011;38366;53.176;6.540;2022-12-11T06:31:16;43.22;;;11.90;;
52450;SDS011;38366;53.176;6.540;2022-12-11T06:33:43;39.25;;;12.15;;
52450;SDS011;38366;53.176;6.540;2022-12-11T06:36:13;42.40;;;12.57;;
52450;SDS011;38366;53.176;6.540;2022-12-11T06:38:41;41.08;;;12.43;;
52450;SDS011;38366;53.176;6.540;2022-12-11T06:41:07;38.42;;;12.00;;
52450;SDS011;38366;53.176;6.540;2022-12-11T06:43:34;42.72;;;12.93;;
52450;SDS011;38366;53.176;6.540;2022-12-11T06:46:04;48.08;;;12.27;;
52450;SDS011;38366;53.176;6.540;2022-12-11T06:48:31;41.50;;;11.63;;
52450;SDS011;38366;53.176;6.540;2022-12-11T06:50:57;37.83;;;11.40;;
52450;SDS011;38366;53.176;6.540;2022-12-11T06:53:23;32.60;;;11.07;;
52450;SDS011;38366;53.176;6.540;2022-12-11T06:55:49;43.35;;;13.45;;
52450;SDS011;38366;53.176;6.540;2022-12-11T06:58:14;36.23;;;10.27;;
52450;SDS011;38366;53.176;6.540;2022-12-11T07:00:40;44.08;;;11.15;;
52450;SDS011;38366;53.176;6.540;2022-12-11T07:03:06;30.83;;;10.18;;
52450;SDS011;38366;53.176;6.540;2022-12-11T07:05:32;41.17;;;11.93;;
52450;SDS011;38366;53.176;6.540;2022-12-11T07:07:58;36.90;;;10.57;;
52450;SDS011;38366;53.176;6.540;2022-12-11T07:10:24;37.30;;;11.27;;
52450;SDS011;38366;53.176;6.540;2022-12-11T07:12:53;34.00;;;10.45;;
52450;SDS011;38366;53.176;6.540;2022-12-11T07:15:19;34.10;;;10.15;;
52450;SDS011;38366;53.176;6.540;2022-12-11T07:17:44;38.45;;;11.27;;
52450;SDS011;38366;53.176;6.540;2022-12-11T07:20:10;38.17;;;11.23;;
52450;SDS011;38366;53.176;6.540;2022-12-11T07:22:36;42.08;;;11.85;;
52450;SDS011;38366;53.176;6.540;2022-12-11T07:25:02;39.80;;;13.13;;
52450;SDS011;38366;53.176;6.540;2022-12-11T07:27:28;41.38;;;10.65;;
52450;SDS011;38366;53.176;6.540;2022-12-11T07:29:54;40.13;;;11.70;;
52450;SDS011;38366;53.176;6.540;2022-12-11T07:32:20;41.97;;;11.07;;
52450;SDS011;38366;53.176;6.540;2022-12-11T07:34:49;42.17;;;12.60;;
52450;SDS011;38366;53.176;6.540;2022-12-11T07:37:15;33.30;;;10.93;;
52450;SDS011;38366;53.176;6.540;2022-12-11T07:39:41;37.58;;;11.93;;
52450;SDS011;38366;53.176;6.540;2022-12-11T07:42:07;41.33;;;11.30;;
52450;SDS011;38366;53.176;6.540;2022-12-11T07:44:32;43.67;;;11.63;;
52450;SDS011;38366;53.176;6.540;2022-12-11T07:46:58;41.07;;;11.13;;
52450;SDS011;38366;53.176;6.540;2022-12-11T07:49:24;37.97;;;11.32;;
52450;SDS011;38366;53.176;6.540;2022-12-11T07:51:49;39.03;;;10.93;;
52450;SDS011;38366;53.176;6.540;2022-12-11T07:54:15;34.35;;;9.13;;
52450;SDS011;38366;53.176;6.540;2022-12-11T07:56:42;39.97;;;11.80;;
52450;SDS011;38366;53.176;6.540;2022-12-11T07:59:08;43.92;;;11.68;;
52450;SDS011;38366;53.176;6.540;2022-12-11T08:01:34;50.47;;;12.80;;
52450;SDS011;38366;53.176;6.540;2022-12-11T08:04:02;46.58;;;11.70;;
52450;SDS011;38366;53.176;6.540;2022-12-11T08:06:30;37.15;;;10.85;;
52450;SDS011;38366;53.176;6.540;2022-12-11T08:08:57;46.40;;;12.55;;
52450;SDS011;38366;53.176;6.540;2022-12-11T08:11:25;44.50;;;12.50;;
52450;SDS011;38366;53.176;6.540;2022-12-11T08:16:17;47.63;;;12.38;;
52450;SDS011;38366;53.176;6.540;2022-12-11T08:18:43;46.47;;;12.38;;
52450;SDS011;38366;53.176;6.540;2022-12-11T08:21:14;49.22;;;13.05;;
52450;SDS011;38366;53.176;6.540;2022-12-11T08:23:41;52.22;;;12.77;;
52450;SDS011;38366;53.176;6.540;2022-12-11T08:26:09;41.60;;;12.40;;
52450;SDS011;38366;53.176;6.540;2022-12-11T08:28:37;53.05;;;13.00;;
52450;SDS011;38366;53.176;6.540;2022-12-11T08:31:04;44.30;;;14.02;;
52450;SDS011;38366;53.176;6.540;2022-12-11T08:33:30;46.28;;;12.60;;
52450;SDS011;38366;53.176;6.540;2022-12-11T08:35:56;48.67;;;12.40;;
52450;SDS011;38366;53.176;6.540;2022-12-11T08:38:22;46.10;;;13.20;;
52450;SDS011;38366;53.176;6.540;2022-12-11T08:40:48;40.72;;;12.88;;
52450;SDS011;38366;53.176;6.540;2022-12-11T08:43:13;43.27;;;13.20;;
52450;SDS011;38366;53.176;6.540;2022-12-11T08:45:39;49.33;;;13.63;;
52450;SDS011;38366;53.176;6.540;2022-12-11T08:48:05;49.90;;;12.80;;
52450;SDS011;38366;53.176;6.540;2022-12-11T08:50:31;48.10;;;12.88;;
52450;SDS011;38366;53.176;6.540;2022-12-11T08:52:57;48.33;;;13.75;;
52450;SDS011;38366;53.176;6.540;2022-12-11T08:55:22;45.67;;;13.73;;
52450;SDS011;38366;53.176;6.540;2022-12-11T08:57:48;51.35;;;13.82;;
52450;SDS011;38366;53.176;6.540;2022-12-11T09:00:14;44.70;;;12.55;;
52450;SDS011;38366;53.176;6.540;2022-12-11T09:02:40;45.05;;;13.35;;
52450;SDS011;38366;53.176;6.540;2022-12-11T09:05:06;44.78;;;12.82;;
52450;SDS011;38366;53.176;6.540;2022-12-11T09:07:34;44.63;;;13.07;;
52450;SDS011;38366;53.176;6.540;2022-12-11T09:10:01;48.78;;;13.70;;
52450;SDS011;38366;53.176;6.540;2022-12-11T09:12:28;45.55;;;12.40;;
52450;SDS011;38366;53.176;6.540;2022-12-11T09:14:53;46.15;;;13.95;;
52450;SDS011;38366;53.176;6.540;2022-12-11T09:17:19;47.93;;;13.70;;
52450;SDS011;38366;53.176;6.540;2022-12-11T09:19:45;49.13;;;13.53;;
52450;SDS011;38366;53.176;6.540;2022-12-11T09:22:10;47.25;;;12.23;;
52450;SDS011;38366;53.176;6.540;2022-12-11T09:24:37;48.15;;;14.23;;
52450;SDS011;38366;53.176;6.540;2022-12-11T09:27:03;46.35;;;13.68;;
52450;SDS011;38366;53.176;6.540;2022-12-11T09:29:29;51.45;;;14.60;;
52450;SDS011;38366;53.176;6.540;2022-12-11T09:31:55;55.25;;;14.63;;
52450;SDS011;38366;53.176;6.540;2022-12-11T09:34:21;47.30;;;15.32;;
52450;SDS011;38366;53.176;6.540;2022-12-11T09:36:47;45.08;;;12.90;;
52450;SDS011;38366;53.176;6.540;2022-12-11T09:39:13;48.10;;;13.50;;
52450;SDS011;38366;53.176;6.540;2022-12-11T09:46:58;53.58;;;14.95;;
52450;SDS011;38366;53.176;6.540;2022-12-11T09:52:50;46.25;;;12.93;;
52450;SDS011;38366;53.176;6.540;2022-12-11T09:55:05;52.53;;;13.70;;
52450;SDS011;38366;53.176;6.540;2022-12-11T10:00:29;50.33;;;13.98;;
52450;SDS011;38366;53.176;6.540;2022-12-11T10:14:17;49.50;;;13.63;;
52450;SDS011;38366;53.176;6.540;2022-12-11T10:17:09;49.10;;;14.35;;
52450;SDS011;38366;53.176;6.540;2022-12-11T10:19:35;55.60;;;14.45;;
52450;SDS011;38366;53.176;6.540;2022-12-11T10:27:15;50.58;;;14.75;;
52450;SDS011;38366;53.176;6.540;2022-12-11T10:29:51;45.20;;;14.10;;
52450;SDS011;38366;53.176;6.540;2022-12-11T10:32:31;56.42;;;14.98;;
52450;SDS011;38366;53.176;6.540;2022-12-11T10:35:16;46.47;;;15.85;;
52450;SDS011;38366;53.176;6.540;2022-12-11T10:41:04;46.72;;;16.13;;
52450;SDS011;38366;53.176;6.540;2022-12-11T10:43:42;51.95;;;15.55;;
52450;SDS011;38366;53.176;6.540;2022-12-11T10:46:23;48.05;;;14.82;;
52450;SDS011;38366;53.176;6.540;2022-12-11T10:48:56;43.40;;;13.30;;
52450;SDS011;38366;53.176;6.540;2022-12-11T10:51:35;45.80;;;13.07;;
52450;SDS011;38366;53.176;6.540;2022-12-11T10:56:32;49.88;;;15.93;;
52450;SDS011;38366;53.176;6.540;2022-12-11T10:59:00;51.95;;;14.80;;
52450;SDS011;38366;53.176;6.540;2022-12-11T11:01:26;45.45;;;12.98;;
52450;SDS011;38366;53.176;6.540;2022-12-11T11:04:56;41.90;;;13.98;;
52450;SDS011;38366;53.176;6.540;2022-12-11T11:07:10;46.17;;;14.05;;
52450;SDS011;38366;53.176;6.540;2022-12-11T11:09:38;41.45;;;13.05;;
52450;SDS011;38366;53.176;6.540;2022-12-11T11:14:41;50.15;;;13.85;;
52450;SDS011;38366;53.176;6.540;2022-12-11T11:17:13;46.20;;;12.73;;
52450;SDS011;38366;53.176;6.540;2022-12-11T11:19:40;50.38;;;13.63;;
52450;SDS011;38366;53.176;6.540;2022-12-11T11:22:13;44.42;;;12.82;;
52450;SDS011;38366;53.176;6.540;2022-12-11T11:24:45;48.40;;;16.10;;
52450;SDS011;38366;53.176;6.540;2022-12-11T11:27:30;65.22;;;20.73;;
52450;SDS011;38366;53.176;6.540;2022-12-11T11:30:00;52.92;;;15.73;;
52450;SDS011;38366;53.176;6.540;2022-12-11T11:32:33;48.95;;;14.38;;
52450;SDS011;38366;53.176;6.540;2022-12-11T11:37:46;42.13;;;14.43;;
52450;SDS011;38366;53.176;6.540;2022-12-11T11:40:43;54.22;;;16.75;;
52450;SDS011;38366;53.176;6.540;2022-12-11T11:43:36;40.92;;;13.70;;
52450;SDS011;38366;53.176;6.540;2022-12-11T11:51:44;49.85;;;14.18;;
52450;SDS011;38366;53.176;6.540;2022-12-11T11:57:17;47.75;;;13.65;;
52450;SDS011;38366;53.176;6.540;2022-12-11T11:59:54;46.90;;;15.10;;
52450;SDS011;38366;53.176;6.540;2022-12-11T12:02:23;46.13;;;14.23;;
52450;SDS011;38366;53.176;6.540;2022-12-11T12:04:49;49.42;;;14.82;;
52450;SDS011;38366;53.176;6.540;2022-12-11T12:10:13;48.40;;;14.82;;
52450;SDS011;38366;53.176;6.540;2022-12-11T12:15:42;44.65;;;13.23;;
52450;SDS011;38366;53.176;6.540;2022-12-11T12:37:56;50.03;;;14.27;;
52450;SDS011;38366;53.176;6.540;2022-12-11T12:48:19;43.35;;;13.70;;
52450;SDS011;38366;53.176;6.540;2022-12-11T12:50:47;48.40;;;14.77;;
52450;SDS011;38366;53.176;6.540;2022-12-11T12:53:23;41.97;;;12.30;;
52450;SDS011;38366;53.176;6.540;2022-12-11T12:55:52;46.88;;;12.95;;
52450;SDS011;38366;53.176;6.540;2022-12-11T12:58:26;46.88;;;14.38;;
52450;SDS011;38366;53.176;6.540;2022-12-11T13:01:07;47.03;;;14.20;;
52450;SDS011;38366;53.176;6.540;2022-12-11T13:03:48;43.13;;;13.05;;
52450;SDS011;38366;53.176;6.540;2022-12-11T13:06:27;48.30;;;14.65;;
52450;SDS011;38366;53.176;6.540;2022-12-11T13:11:41;40.92;;;13.82;;
52450;SDS011;38366;53.176;6.540;2022-12-11T13:14:29;43.85;;;13.27;;
52450;SDS011;38366;53.176;6.540;2022-12-11T13:19:44;47.60;;;14.50;;
52450;SDS011;38366;53.176;6.540;2022-12-11T13:27:35;50.20;;;15.50;;
52450;SDS011;38366;53.176;6.540;2022-12-11T13:30:05;44.90;;;14.27;;
52450;SDS011;38366;53.176;6.540;2022-12-11T13:32:37;48.85;;;15.63;;
52450;SDS011;38366;53.176;6.540;2022-12-11T13:35:05;51.97;;;14.43;;
52450;SDS011;38366;53.176;6.540;2022-12-11T13:37:32;46.25;;;14.77;;
52450;SDS011;38366;53.176;6.540;2022-12-11T13:40:08;46.80;;;14.13;;
52450;SDS011;38366;53.176;6.540;2022-12-11T13:42:42;42.60;;;14.98;;
52450;SDS011;38366;53.176;6.540;2022-12-11T13:45:22;39.97;;;13.13;;
52450;SDS011;38366;53.176;6.540;2022-12-11T13:47:52;45.85;;;14.23;;
52450;SDS011;38366;53.176;6.540;2022-12-11T13:50:23;47.83;;;16.17;;
52450;SDS011;38366;53.176;6.540;2022-12-11T13:53:02;45.78;;;15.32;;
52450;SDS011;38366;53.176;6.540;2022-12-11T13:55:30;46.17;;;15.07;;
52450;SDS011;38366;53.176;6.540;2022-12-11T13:57:57;51.03;;;16.05;;
52450;SDS011;38366;53.176;6.540;2022-12-11T14:00:24;48.85;;;14.30;;
52450;SDS011;38366;53.176;6.540;2022-12-11T14:02:53;49.85;;;16.17;;
52450;SDS011;38366;53.176;6.540;2022-12-11T14:05:22;48.90;;;16.02;;
52450;SDS011;38366;53.176;6.540;2022-12-11T14:07:49;49.95;;;14.85;;
52450;SDS011;38366;53.176;6.540;2022-12-11T14:10:19;48.45;;;16.48;;
52450;SDS011;38366;53.176;6.540;2022-12-11T14:15:26;43.33;;;14.27;;
52450;SDS011;38366;53.176;6.540;2022-12-11T14:17:53;41.63;;;14.70;;
52450;SDS011;38366;53.176;6.540;2022-12-11T14:20:22;47.85;;;13.63;;
52450;SDS011;38366;53.176;6.540;2022-12-11T14:25:57;46.78;;;13.57;;
52450;SDS011;38366;53.176;6.540;2022-12-11T14:28:34;42.75;;;14.13;;
52450;SDS011;38366;53.176;6.540;2022-12-11T14:31:01;41.70;;;13.20;;
52450;SDS011;38366;53.176;6.540;2022-12-11T14:33:34;34.45;;;12.02;;
52450;SDS011;38366;53.176;6.540;2022-12-11T14:36:04;43.33;;;12.50;;
52450;SDS011;38366;53.176;6.540;2022-12-11T14:44:25;48.72;;;14.98;;
52450;SDS011;38366;53.176;6.540;2022-12-11T14:46:57;50.30;;;14.95;;
52450;SDS011;38366;53.176;6.540;2022-12-11T14:51:59;47.60;;;14.85;;
52450;SDS011;38366;53.176;6.540;2022-12-11T14:54:28;49.70;;;15.20;;
52450;SDS011;38366;53.176;6.540;2022-12-11T14:57:01;47.28;;;14.75;;
52450;SDS011;38366;53.176;6.540;2022-12-11T14:59:30;50.42;;;15.05;;
52450;SDS011;38366;53.176;6.540;2022-12-11T15:02:17;50.20;;;15.52;;
52450;SDS011;38366;53.176;6.540;2022-12-11T15:07:52;49.80;;;15.10;;
52450;SDS011;38366;53.176;6.540;2022-12-11T15:11:07;44.60;;;14.18;;
52450;SDS011;38366;53.176;6.540;2022-12-11T15:13:36;45.85;;;14.70;;
52450;SDS011;38366;53.176;6.540;2022-12-11T15:16:16;45.72;;;15.40;;
52450;SDS011;38366;53.176;6.540;2022-12-11T15:18:42;47.42;;;16.20;;
52450;SDS011;38366;53.176;6.540;2022-12-11T15:21:13;46.03;;;16.20;;
52450;SDS011;38366;53.176;6.540;2022-12-11T15:26:16;47.20;;;15.57;;
52450;SDS011;38366;53.176;6.540;2022-12-11T15:28:42;51.33;;;15.80;;
52450;SDS011;38366;53.176;6.540;2022-12-11T15:31:25;49.50;;;15.50;;
52450;SDS011;38366;53.176;6.540;2022-12-11T15:33:52;50.58;;;14.50;;
52450;SDS011;38366;53.176;6.540;2022-12-11T15:36:31;42.25;;;14.50;;
52450;SDS011;38366;53.176;6.540;2022-12-11T15:38:59;44.03;;;14.18;;
52450;SDS011;38366;53.176;6.540;2022-12-11T15:41:26;49.58;;;14.95;;
52450;SDS011;38366;53.176;6.540;2022-12-11T15:43:57;44.88;;;14.13;;
52450;SDS011;38366;53.176;6.540;2022-12-11T15:46:26;46.08;;;15.10;;
52450;SDS011;38366;53.176;6.540;2022-12-11T15:48:52;50.78;;;16.92;;
52450;SDS011;38366;53.176;6.540;2022-12-11T15:51:19;45.88;;;14.95;;
52450;SDS011;38366;53.176;6.540;2022-12-11T15:53:45;43.47;;;15.93;;
52450;SDS011;38366;53.176;6.540;2022-12-11T15:56:14;47.03;;;15.32;;
52450;SDS011;38366;53.176;6.540;2022-12-11T15:58:41;49.15;;;16.15;;
52450;SDS011;38366;53.176;6.540;2022-12-11T16:01:08;48.75;;;16.17;;
52450;SDS011;38366;53.176;6.540;2022-12-11T16:03:34;46.03;;;15.68;;
52450;SDS011;38366;53.176;6.540;2022-12-11T16:06:00;44.47;;;14.20;;
52450;SDS011;38366;53.176;6.540;2022-12-11T16:08:26;45.10;;;15.35;;
52450;SDS011;38366;53.176;6.540;2022-12-11T16:10:52;45.03;;;15.25;;
52450;SDS011;38366;53.176;6.540;2022-12-11T16:13:18;42.88;;;13.90;;
52450;SDS011;38366;53.176;6.540;2022-12-11T16:15:45;43.60;;;15.50;;
52450;SDS011;38366;53.176;6.540;2022-12-11T16:18:15;36.45;;;13.18;;
52450;SDS011;38366;53.176;6.540;2022-12-11T16:20:42;43.67;;;14.00;;
52450;SDS011;38366;53.176;6.540;2022-12-11T16:23:10;42.13;;;13.88;;
52450;SDS011;38366;53.176;6.540;2022-12-11T16:25:37;43.40;;;14.40;;
52450;SDS011;38366;53.176;6.540;2022-12-11T16:28:04;30.67;;;11.20;;
52450;SDS011;38366;53.176;6.540;2022-12-11T16:30:32;40.22;;;15.18;;
52450;SDS011;38366;53.176;6.540;2022-12-11T16:33:00;41.50;;;14.43;;
52450;SDS011;38366;53.176;6.540;2022-12-11T16:35:27;43.08;;;14.68;;
52450;SDS011;38366;53.176;6.540;2022-12-11T16:37:53;41.03;;;14.40;;
52450;SDS011;38366;53.176;6.540;2022-12-11T16:42:45;37.35;;;12.57;;
52450;SDS011;38366;53.176;6.540;2022-12-11T16:45:14;41.35;;;14.82;;
52450;SDS011;38366;53.176;6.540;2022-12-11T16:47:42;41.85;;;14.80;;